Relevés horaires Beauvechain (Belgique)


Relevés horaires à Beauvechain - Jeudi 30 Mars 2017
Heure UTC1 Température [°C] Vent [km/h] Hum. [%] Pres.4 [hPa] Visi. [Km] Nébu. [octa] Préc.5 [mm] Cond.
2m. Res. Ros. Dir.2 Vit. Moy. Raf.3
23:00 15.0 15.0 6.8 SSE 5.6 -- 9.3 58 1018.2(-1.8/3h) 20 -- -- --
22:00 15.2 15.2 6.7 SE 5.6 -- 9.3 57 1019(-1.4/3h) 20 -- -- --
21:00 15.8 15.8 6.5 SSE 5.6 -- 7.4 54 1019.5(-1.0/3h) 20 -- -- --
20:00 17.1 17.1 6.4 SSE 3.7 -- 5.6 49 1020.1(-0.6/3h) 20 -- -- --
19:00 18.2 18.2 6.5 SSE 3.7 -- 5.6 46 1020.2(-0.6/3h) 20 -- -- --
18:00 19.7 19.7 7.0 SSE 3.7 -- 13.0 44 1020.2(-1.4/3h) 20 -- -- --
17:00 21.3 21.3 6.9 S 3.7 -- 9.3 39 1020.5(-1.9/3h) 20 -- -- --
16:00 21.6 21.6 6.3 SSE 3.7 -- 11.1 37 1020.7(-2.3/3h) 20 3/8 -- --
15:00 21.6 21.6 6.2 S 9.3 -- 13.0 37 1021.7(-2.2/3h) 20 3/8 -- --
14:00 20.7 20.7 7.0 SSO 5.6 -- 13.0 41 1022.5(-2.0/3h) 20 3/8 -- --
12:00 20.1 20.1 7.4 S 7.4 -- 14.8 44 1024(-1.3/3h) 20 3/8 -- --
11:00 19.3 19.3 8.7 S 9.3 -- 13.0 50 1024.5(-0.8/3h) 20 3/8 -- --
10:00 17.2 17.2 8.4 S 9.3 -- 14.8 56 1025.2(-0.2/3h) 20 6/8 -- --
09:00 15.1 14.8 8.5 S 9.3 -- 13.0 65 1025.7(0.2/3h) 20 7/8 -- --
08:00 13.6 13.3 7.8 SSO 7.4 -- 9.3 68 1025.7(0.4/3h) 20 7/8 -- --
07:00 12.6 12.6 7.6 S 5.6 -- 9.3 72 1025.7(0.2/3h) 20 6/8 -- --
06:00 11.8 11.2 7.2 SSO 7.4 -- 11.1 73 1025.5(0.0/3h) 20 6/8 -- --
05:00 11.5 10.5 6.9 S 9.3 -- 11.1 73 1025.5(-0.2/3h) 20 6/8 -- --
04:00 11.1 10.4 6.9 SSO 7.4 -- 11.1 75 1025.5(-0.3/3h) 20 2/8 -- --
03:00 11.5 10.5 7.0 S 9.3 -- 11.1 74 1025.5(-0.6/3h) 20 -- -- --
02:00 11.8 11.2 7.0 S 7.4 -- 11.1 72 1025.7(-0.6/3h) 20 -- -- --
01:00 12.0 11.1 7.0 S 9.3 -- 11.1 71 1025.9(-0.5/3h) 20 -- -- --
00:00 12.3 11.8 7.0 S 7.4 -- 9.3 70 1026.2(-0.2/3h) 20 -- -- --

1 Coordinated Universal Time. Actuellement il est 23:00 locale et 22:00 UTC.

2 Le vent souffle depuis la direction indiquée vers la direction oposée.

3 Les rafales max. sont disponible 40 min après l'heure du relevé.

4 Pour les stations d'altitude (plus de 600m) le géopotentiel du niveau le plus proche de la pression obligatoire est indiqué.

5 Les stations disposant d'un diffuseur peuvent indiquer "trace". Cela signifie que des précipitations ont touchés le sol mais que la quantité est inférieure à 0.1 mm.

Récapitulatif de la journée
Température [°C] Vent [km/h] Ensoleillement4 [h] Precipitations totale5 [mm] Pression [Hpa]
Min1 Max.2 Moy.3 Max. Min Max.
10.7 22.1 0 14.8 0 h 0 min 0 1018.2 1026.2

1 Température minimale relevée entre 18:00 UTC la veille et 18:00 UTC le jour donné.

2 Température maximale relevée entre 06:00 UTC le jour donné et 06:00 UTC le lendemain.

3 Vent moyen de la journée basé sur les relevés horaires.

4 Ensoleillement en heures relevé entre 06:00 UTC la veille et 06:00 UTC le jour donné.

5 Précipitations totales tombées entre 06:00 UTC la jour donné et 06:00 UTC le lendemain.

Graphiques horaires